Time,TemperatureF,DewpointF,PressureIn,WindDirection,WindDirectionDegrees,WindSpeedMPH,WindSpeedGustMPH,Humidity,HourlyPrecipIn,Conditions,Clouds,dailyrainin,SolarRadiationWatts/m^2,SoftwareType,DateUTC
2013-02-20 00:00:00,22.3,20.8,29.74,NW,309,1.0,1.0,94,0.00,,,0.00,0,Wunderground v.1.15,2013-02-20 08:00:00,
2013-02-20 00:10:00,22.2,20.7,29.75,NW,307,0.0,0.0,94,0.00,,,0.00,0,Wunderground v.1.15,2013-02-20 08:10:00,
2013-02-20 00:20:00,22.0,20.5,29.75,NW,307,0.0,0.0,94,0.00,,,0.00,0,Wunderground v.1.15,2013-02-20 08:20:00,
2013-02-20 00:30:00,21.4,20.2,29.75,NW,307,2.0,2.0,95,0.00,,,0.00,0,Wunderground v.1.15,2013-02-20 08:30:00,
2013-02-20 00:40:00,21.2,20.0,29.76,NW,307,3.0,3.0,95,0.00,,,0.00,0,Wunderground v.1.15,2013-02-20 08:40:00,
2013-02-20 00:50:00,20.9,19.9,29.76,NW,307,0.0,0.0,96,0.00,,,0.00,0,Wunderground v.1.15,2013-02-20 08:50:00,
2013-02-20 01:00:00,20.4,19.4,29.76,NW,307,0.0,0.0,96,0.00,,,0.00,0,Wunderground v.1.15,2013-02-20 09:00:00,
2013-02-20 01:10:00,20.1,19.1,29.76,NW,307,0.0,0.0,96,0.00,,,0.00,0,Wunderground v.1.15,2013-02-20 09:10:00,
2013-02-20 01:20:00,20.4,19.7,29.77,NW,307,0.0,0.0,97,0.00,,,0.00,0,Wunderground v.1.15,2013-02-20 09:20:00,
2013-02-20 01:30:00,20.5,19.8,29.77,NW,307,0.0,0.0,97,0.00,,,0.00,0,Wunderground v.1.15,2013-02-20 09:30:00,
2013-02-20 01:40:00,19.7,18.7,29.77,WNW,303,0.0,0.0,96,0.00,,,0.00,0,Wunderground v.1.15,2013-02-20 09:40:00,
2013-02-20 01:50:00,19.6,18.9,29.77,WNW,303,0.0,0.0,97,0.00,,,0.00,0,Wunderground v.1.15,2013-02-20 09:50:00,
2013-02-20 02:00:00,19.1,18.4,29.77,WNW,303,0.0,0.0,97,0.00,,,0.00,0,Wunderground v.1.15,2013-02-20 10:00:00,
2013-02-20 02:14:00,18.9,18.4,29.78,WNW,303,0.0,0.0,98,0.00,,,0.00,0,Wunderground v.1.15,2013-02-20 10:14:00,
2013-02-20 02:20:00,18.8,18.3,29.77,WNW,303,0.0,0.0,98,0.00,,,0.00,0,Wunderground v.1.15,2013-02-20 10:20:00,
2013-02-20 02:30:00,18.7,18.2,29.77,WNW,283,0.0,3.0,98,0.00,,,0.00,0,Wunderground v.1.15,2013-02-20 10:30:00,
2013-02-20 02:40:00,18.7,18.2,29.77,West,270,2.0,2.0,98,0.00,,,0.00,0,Wunderground v.1.15,2013-02-20 10:40:00,
2013-02-20 02:50:00,18.5,18.0,29.77,West,270,2.0,3.0,98,0.00,,,0.00,0,Wunderground v.1.15,2013-02-20 10:50:00,
2013-02-20 03:00:00,18.2,17.7,29.77,West,270,0.0,0.0,98,0.00,,,0.00,0,Wunderground v.1.15,2013-02-20 11:00:00,
2013-02-20 03:10:00,17.6,17.1,29.78,West,270,0.0,0.0,98,0.00,,,0.00,0,Wunderground v.1.15,2013-02-20 11:10:00,
2013-02-20 03:20:00,17.4,17.2,29.78,West,270,0.0,0.0,99,0.00,,,0.00,0,Wunderground v.1.15,2013-02-20 11:20:00,
2013-02-20 03:35:00,16.9,16.4,29.78,West,270,0.0,0.0,98,0.00,,,0.00,0,Wunderground v.1.15,2013-02-20 11:35:00,
2013-02-20 03:40:00,16.8,16.6,29.78,West,270,0.0,0.0,99,0.00,,,0.00,0,Wunderground v.1.15,2013-02-20 11:40:00,
2013-02-20 03:50:00,16.5,16.0,29.78,West,270,0.0,0.0,98,0.00,,,0.00,0,Wunderground v.1.15,2013-02-20 11:50:00,
2013-02-20 04:00:00,16.5,16.3,29.79,West,270,0.0,0.0,99,0.00,,,0.00,0,Wunderground v.1.15,2013-02-20 12:00:00,
2013-02-20 04:10:00,16.4,16.2,29.79,West,270,0.0,0.0,99,0.00,,,0.00,0,Wunderground v.1.15,2013-02-20 12:10:00,
2013-02-20 04:20:00,16.3,16.1,29.79,West,270,0.0,0.0,99,0.00,,,0.00,0,Wunderground v.1.15,2013-02-20 12:20:00,
2013-02-20 04:30:00,16.1,15.9,29.79,West,270,0.0,0.0,99,0.00,,,0.00,0,Wunderground v.1.15,2013-02-20 12:30:00,
2013-02-20 04:45:00,16.0,15.8,29.79,West,270,0.0,0.0,99,0.00,,,0.00,0,Wunderground v.1.15,2013-02-20 12:45:00,
2013-02-20 04:50:00,15.9,15.4,29.79,West,270,0.0,0.0,98,0.00,,,0.00,0,Wunderground v.1.15,2013-02-20 12:50:00,
2013-02-20 05:05:00,15.5,15.0,29.80,West,270,2.0,2.0,98,0.00,,,0.00,0,Wunderground v.1.15,2013-02-20 13:05:00,
2013-02-20 05:10:00,15.5,15.3,29.80,West,270,1.0,2.0,99,0.00,,,0.00,0,Wunderground v.1.15,2013-02-20 13:10:00,
2013-02-20 05:20:00,15.3,14.8,29.80,West,270,0.0,1.0,98,0.00,,,0.00,0,Wunderground v.1.15,2013-02-20 13:20:00,
2013-02-20 05:30:00,15.5,15.3,29.80,West,270,1.0,1.0,99,0.00,,,0.00,0,Wunderground v.1.15,2013-02-20 13:30:00,
2013-02-20 05:40:00,15.8,15.6,29.80,West,270,0.0,2.0,99,0.00,,,0.00,0,Wunderground v.1.15,2013-02-20 13:40:00,
2013-02-20 05:50:00,15.5,15.0,29.80,West,270,0.0,0.0,98,0.00,,,0.00,0,Wunderground v.1.15,2013-02-20 13:50:00,
2013-02-20 06:05:00,15.5,15.0,29.81,West,270,0.0,0.0,98,0.00,,,0.00,0,Wunderground v.1.15,2013-02-20 14:05:00,
2013-02-20 06:10:00,15.4,14.9,29.81,West,270,0.0,0.0,98,0.00,,,0.00,0,Wunderground v.1.15,2013-02-20 14:10:00,
2013-02-20 06:20:00,15.1,14.6,29.81,West,270,0.0,0.0,98,0.00,,,0.00,0,Wunderground v.1.15,2013-02-20 14:20:00,
2013-02-20 06:30:00,15.1,14.6,29.81,West,270,0.0,0.0,98,0.00,,,0.00,0,Wunderground v.1.15,2013-02-20 14:30:00,
2013-02-20 06:40:00,15.2,14.7,29.81,West,270,0.0,0.0,98,0.00,,,0.00,0,Wunderground v.1.15,2013-02-20 14:40:00,
2013-02-20 06:50:00,14.8,14.1,29.82,West,270,0.0,0.0,97,0.00,,,0.00,0,Wunderground v.1.15,2013-02-20 14:50:00,
2013-02-20 07:00:00,15.2,14.7,29.81,West,270,0.0,0.0,98,0.00,,,0.00,0,Wunderground v.1.15,2013-02-20 15:00:00,
2013-02-20 07:10:00,15.4,14.9,29.81,West,270,0.0,0.0,98,0.00,,,0.00,0,Wunderground v.1.15,2013-02-20 15:10:00,
2013-02-20 07:20:00,15.4,14.7,29.82,West,270,0.0,0.0,97,0.00,,,0.00,0,Wunderground v.1.15,2013-02-20 15:20:00,
2013-02-20 07:30:00,15.8,15.1,29.82,West,270,0.0,0.0,97,0.00,,,0.00,0,Wunderground v.1.15,2013-02-20 15:30:00,
2013-02-20 07:40:00,16.6,15.7,29.82,West,270,0.0,0.0,96,0.00,,,0.00,0,Wunderground v.1.15,2013-02-20 15:40:00,
2013-02-20 07:50:00,17.7,16.8,29.82,West,270,0.0,0.0,96,0.00,,,0.00,0,Wunderground v.1.15,2013-02-20 15:50:00,
2013-02-20 08:05:00,20.0,19.0,29.82,West,270,0.0,0.0,96,0.00,,,0.00,0,Wunderground v.1.15,2013-02-20 16:05:00,
2013-02-20 08:10:00,21.2,20.2,29.82,West,270,0.0,0.0,96,0.00,,,0.00,0,Wunderground v.1.15,2013-02-20 16:10:00,
2013-02-20 08:20:00,23.5,22.3,29.82,West,270,0.0,0.0,95,0.00,,,0.00,0,Wunderground v.1.15,2013-02-20 16:20:00,
2013-02-20 08:30:00,25.3,23.8,29.82,West,270,0.0,0.0,94,0.00,,,0.00,0,Wunderground v.1.15,2013-02-20 16:30:00,
2013-02-20 08:40:00,27.0,25.5,29.82,West,270,0.0,0.0,94,0.00,,,0.00,0,Wunderground v.1.15,2013-02-20 16:40:00,
2013-02-20 08:50:00,29.2,27.2,29.82,West,270,0.0,0.0,92,0.00,,,0.00,0,Wunderground v.1.15,2013-02-20 16:50:00,
2013-02-20 09:00:00,32.0,28.8,29.82,West,270,0.0,0.0,88,0.00,,,0.00,0,Wunderground v.1.15,2013-02-20 17:00:00,
2013-02-20 09:10:00,34.4,28.2,29.82,SW,227,3.0,3.0,78,0.00,,,0.00,0,Wunderground v.1.15,2013-02-20 17:10:00,
2013-02-20 09:20:00,35.9,27.4,29.82,WSW,251,6.0,6.0,71,0.00,,,0.00,0,Wunderground v.1.15,2013-02-20 17:20:00,
2013-02-20 09:30:00,36.1,26.2,29.82,West,259,8.0,8.0,67,0.00,,,0.00,0,Wunderground v.1.15,2013-02-20 17:30:00,
2013-02-20 09:40:00,36.1,25.8,29.82,SW,233,6.0,6.0,66,0.00,,,0.00,0,Wunderground v.1.15,2013-02-20 17:40:00,
2013-02-20 09:50:00,35.9,26.0,29.81,WSW,243,13.0,13.0,67,0.00,,,0.00,0,Wunderground v.1.15,2013-02-20 17:50:00,
2013-02-20 10:00:00,35.9,25.6,29.82,NW,314,2.0,2.0,66,0.00,,,0.00,0,Wunderground v.1.15,2013-02-20 18:00:00,
2013-02-20 10:10:00,36.1,25.5,29.82,WSW,245,6.0,6.0,65,0.00,,,0.00,0,Wunderground v.1.15,2013-02-20 18:10:00,
2013-02-20 10:20:00,36.5,25.5,29.82,West,262,7.0,7.0,64,0.00,,,0.00,0,Wunderground v.1.15,2013-02-20 18:20:00,
2013-02-20 10:30:00,36.8,25.4,29.82,WSW,258,6.0,6.0,63,0.00,,,0.00,0,Wunderground v.1.15,2013-02-20 18:30:00,
2013-02-20 10:40:00,37.5,25.3,29.82,West,266,7.0,7.0,61,0.00,,,0.00,0,Wunderground v.1.15,2013-02-20 18:40:00,
2013-02-20 10:50:00,38.0,24.9,29.82,West,265,11.0,11.0,59,0.00,,,0.00,0,Wunderground v.1.15,2013-02-20 18:50:00,
2013-02-20 11:00:00,37.9,25.2,29.82,WSW,248,5.0,5.0,60,0.00,,,0.00,0,Wunderground v.1.15,2013-02-20 19:00:00,
2013-02-20 11:10:00,38.1,25.4,29.82,WSW,253,11.0,11.0,60,0.00,,,0.00,0,Wunderground v.1.15,2013-02-20 19:10:00,
2013-02-20 11:25:00,38.6,25.5,29.81,West,276,7.0,7.0,59,0.00,,,0.00,0,Wunderground v.1.15,2013-02-20 19:25:00,
2013-02-20 11:30:00,38.6,25.5,29.81,WNW,293,11.0,11.0,59,0.00,,,0.00,0,Wunderground v.1.15,2013-02-20 19:30:00,
2013-02-20 11:45:00,38.7,25.6,29.81,SSW,209,4.0,4.0,59,0.00,,,0.00,0,Wunderground v.1.15,2013-02-20 19:45:00,
2013-02-20 11:50:00,39.3,25.3,29.81,NW,309,8.0,8.0,57,0.00,,,0.00,0,Wunderground v.1.15,2013-02-20 19:50:00,
2013-02-20 12:00:00,39.7,25.3,29.81,ENE,57,5.0,5.0,56,0.00,,,0.00,0,Wunderground v.1.15,2013-02-20 20:00:00,
2013-02-20 12:15:00,39.4,25.8,29.81,WSW,240,4.0,4.0,58,0.00,,,0.00,0,Wunderground v.1.15,2013-02-20 20:15:00,
2013-02-20 12:20:00,39.7,26.1,29.81,West,279,15.0,15.0,58,0.00,,,0.00,0,Wunderground v.1.15,2013-02-20 20:20:00,
2013-02-20 12:30:00,39.9,27.1,29.81,WSW,243,6.0,20.0,60,0.00,,,0.00,0,Wunderground v.1.15,2013-02-20 20:30:00,
2013-02-20 12:40:00,39.7,26.5,29.81,WSW,249,18.0,18.0,59,0.00,,,0.00,0,Wunderground v.1.15,2013-02-20 20:40:00,
2013-02-20 12:55:00,38.7,26.4,29.81,NW,322,15.0,15.0,61,0.00,,,0.00,0,Wunderground v.1.15,2013-02-20 20:55:00,
2013-02-20 13:00:00,38.5,26.6,29.80,SE,126,7.0,7.0,62,0.00,,,0.00,0,Wunderground v.1.15,2013-02-20 21:00:00,
2013-02-20 13:10:00,38.4,26.9,29.79,East,84,3.0,3.0,63,0.00,,,0.00,0,Wunderground v.1.15,2013-02-20 21:10:00,
2013-02-20 13:20:00,38.5,27.4,29.79,WSW,252,11.0,11.0,64,0.00,,,0.00,0,Wunderground v.1.15,2013-02-20 21:20:00,
2013-02-20 13:35:00,38.9,27.8,29.78,SW,218,9.0,9.0,64,0.00,,,0.00,0,Wunderground v.1.15,2013-02-20 21:35:00,
2013-02-20 13:40:00,38.3,26.8,29.78,WSW,252,4.0,9.0,63,0.00,,,0.00,0,Wunderground v.1.15,2013-02-20 21:40:00,
2013-02-20 13:50:00,38.1,26.2,29.78,NW,306,5.0,12.0,62,0.00,,,0.00,0,Wunderground v.1.15,2013-02-20 21:50:00,
2013-02-20 14:00:00,39.3,26.2,29.77,WNW,297,8.0,8.0,59,0.00,,,0.00,0,Wunderground v.1.15,2013-02-20 22:00:00,
2013-02-20 14:05:00,39.7,26.5,29.77,West,260,12.0,12.0,59,0.00,,,0.00,0,Wunderground v.1.15,2013-02-20 22:05:00,
2013-02-20 14:15:00,40.6,27.0,29.77,WSW,253,12.0,14.0,58,0.00,,,0.00,0,Wunderground v.1.15,2013-02-20 22:15:00,
2013-02-20 14:20:00,40.2,26.6,29.77,SSW,200,6.0,6.0,58,0.00,,,0.00,0,Wunderground v.1.15,2013-02-20 22:20:00,
2013-02-20 14:30:00,38.6,26.3,29.77,NNW,332,23.0,23.0,61,0.00,,,0.00,0,Wunderground v.1.15,2013-02-20 22:30:00,
2013-02-20 14:40:00,38.4,26.5,29.77,NW,316,8.0,8.0,62,0.00,,,0.00,0,Wunderground v.1.15,2013-02-20 22:40:00,
2013-02-20 14:50:00,37.9,26.8,29.77,West,260,10.0,17.0,64,0.00,,,0.00,0,Wunderground v.1.15,2013-02-20 22:50:00,
2013-02-20 15:00:00,37.7,27.4,29.77,SW,219,12.0,12.0,66,0.00,,,0.00,0,Wunderground v.1.15,2013-02-20 23:00:00,
2013-02-20 15:10:00,37.7,27.7,29.77,NW,311,8.0,8.0,67,0.00,,,0.00,0,Wunderground v.1.15,2013-02-20 23:10:00,
2013-02-20 15:25:00,37.6,26.5,29.77,West,259,17.0,17.0,64,0.00,,,0.00,0,Wunderground v.1.15,2013-02-20 23:25:00,
2013-02-20 15:30:00,37.4,26.7,29.77,WNW,289,7.0,17.0,65,0.00,,,0.00,0,Wunderground v.1.15,2013-02-20 23:30:00,
2013-02-20 15:40:00,37.1,27.2,29.77,WSW,251,7.0,9.0,67,0.00,,,0.00,0,Wunderground v.1.15,2013-02-20 23:40:00,
2013-02-20 15:50:00,36.9,27.0,29.78,WSW,247,11.0,11.0,67,0.00,,,0.00,0,Wunderground v.1.15,2013-02-20 23:50:00,
2013-02-20 16:00:00,36.8,26.9,29.78,West,275,11.0,11.0,67,0.00,,,0.00,0,Wunderground v.1.15,2013-02-21 00:00:00,
2013-02-20 16:10:00,36.8,26.5,29.78,WSW,258,11.0,11.0,66,0.00,,,0.00,0,Wunderground v.1.15,2013-02-21 00:10:00,
2013-02-20 16:20:00,36.8,26.5,29.78,West,263,5.0,5.0,66,0.00,,,0.00,0,Wunderground v.1.15,2013-02-21 00:20:00,
2013-02-20 16:35:00,36.3,27.4,29.78,WNW,294,8.0,8.0,70,0.00,,,0.00,0,Wunderground v.1.15,2013-02-21 00:35:00,
2013-02-20 16:40:00,36.2,27.4,29.78,West,275,6.0,8.0,70,0.00,,,0.00,0,Wunderground v.1.15,2013-02-21 00:40:00,
2013-02-20 16:50:00,36.0,26.8,29.78,ENE,58,7.0,7.0,69,0.00,,,0.00,0,Wunderground v.1.15,2013-02-21 00:50:00,
2013-02-20 17:05:00,35.6,26.8,29.79,West,264,11.0,11.0,70,0.00,,,0.00,0,Wunderground v.1.15,2013-02-21 01:05:00,
2013-02-20 17:10:00,35.2,27.4,29.79,WSW,242,11.0,11.0,73,0.00,,,0.00,0,Wunderground v.1.15,2013-02-21 01:10:00,
2013-02-20 17:20:00,34.8,28.3,29.78,WSW,257,8.0,9.0,77,0.00,,,0.00,0,Wunderground v.1.15,2013-02-21 01:20:00,
2013-02-20 17:35:00,34.7,27.9,29.78,SW,235,3.0,3.0,76,0.00,,,0.00,0,Wunderground v.1.15,2013-02-21 01:35:00,
2013-02-20 17:40:00,34.7,27.9,29.78,WSW,240,7.0,7.0,76,0.00,,,0.00,0,Wunderground v.1.15,2013-02-21 01:40:00,
2013-02-20 17:55:00,34.6,26.8,29.78,WSW,256,5.0,5.0,73,0.00,,,0.00,0,Wunderground v.1.15,2013-02-21 01:55:00,
2013-02-20 18:00:00,34.5,26.7,29.78,West,261,3.0,3.0,73,0.00,,,0.00,0,Wunderground v.1.15,2013-02-21 02:00:00,
2013-02-20 18:10:00,34.3,26.5,29.78,WSW,255,3.0,3.0,73,0.00,,,0.00,0,Wunderground v.1.15,2013-02-21 02:10:00,
2013-02-20 18:20:00,34.3,26.2,29.79,WNW,303,1.0,1.0,72,0.00,,,0.00,0,Wunderground v.1.15,2013-02-21 02:20:00,
2013-02-20 18:30:00,34.1,26.3,29.78,NW,309,3.0,3.0,73,0.00,,,0.00,0,Wunderground v.1.15,2013-02-21 02:30:00,
2013-02-20 18:40:00,33.9,26.8,29.78,SW,236,3.0,5.0,75,0.00,,,0.00,0,Wunderground v.1.15,2013-02-21 02:40:00,
2013-02-20 18:50:00,33.7,26.6,29.79,WNW,295,2.0,2.0,75,0.00,,,0.00,0,Wunderground v.1.15,2013-02-21 02:50:00,
2013-02-20 19:00:00,33.8,26.7,29.79,North,354,4.0,4.0,75,0.00,,,0.00,0,Wunderground v.1.15,2013-02-21 03:00:00,
2013-02-20 19:15:00,33.6,27.2,29.80,West,281,0.0,0.0,77,0.00,,,0.00,0,Wunderground v.1.15,2013-02-21 03:15:00,
2013-02-20 19:20:00,33.5,27.1,29.80,WNW,286,0.0,0.0,77,0.00,,,0.00,0,Wunderground v.1.15,2013-02-21 03:20:00,
2013-02-20 19:30:00,33.2,26.8,29.80,South,169,3.0,4.0,77,0.00,,,0.00,0,Wunderground v.1.15,2013-02-21 03:30:00,
2013-02-20 19:45:00,32.4,26.3,29.80,South,170,0.0,0.0,78,0.00,,,0.00,0,Wunderground v.1.15,2013-02-21 03:45:00,
2013-02-20 19:50:00,32.4,26.3,29.80,South,170,0.0,0.0,78,0.00,,,0.00,0,Wunderground v.1.15,2013-02-21 03:50:00,
2013-02-20 20:00:00,33.1,26.7,29.80,WSW,244,5.0,5.0,77,0.00,,,0.00,0,Wunderground v.1.15,2013-02-21 04:00:00,
2013-02-20 20:10:00,33.2,27.1,29.80,WSW,252,5.0,5.0,78,0.00,,,0.00,0,Wunderground v.1.15,2013-02-21 04:10:00,
2013-02-20 20:20:00,33.2,27.4,29.81,WSW,254,1.0,1.0,79,0.00,,,0.00,0,Wunderground v.1.15,2013-02-21 04:20:00,
2013-02-20 20:30:00,32.9,26.8,29.81,SE,135,0.0,0.0,78,0.00,,,0.00,0,Wunderground v.1.15,2013-02-21 04:30:00,
2013-02-20 20:40:00,32.8,26.4,29.82,SE,135,1.0,1.0,77,0.00,,,0.00,0,Wunderground v.1.15,2013-02-21 04:40:00,
2013-02-20 20:55:00,33.0,27.5,29.82,WSW,255,0.0,0.0,80,0.00,,,0.00,0,Wunderground v.1.15,2013-02-21 04:55:00,
2013-02-20 21:00:00,32.6,27.1,29.82,WSW,258,0.0,0.0,80,0.00,,,0.00,0,Wunderground v.1.15,2013-02-21 05:00:00,
2013-02-20 21:05:00,32.6,27.4,29.82,West,266,0.0,0.0,81,0.00,,,0.00,0,Wunderground v.1.15,2013-02-21 05:05:00,
2013-02-20 21:10:00,32.5,27.6,29.82,West,270,0.0,0.0,82,0.00,,,0.00,0,Wunderground v.1.15,2013-02-21 05:10:00,
2013-02-20 21:20:00,32.3,28.0,29.82,West,268,0.0,0.0,84,0.00,,,0.00,0,Wunderground v.1.15,2013-02-21 05:20:00,
2013-02-20 21:35:00,32.2,28.2,29.82,West,268,0.0,0.0,85,0.00,,,0.00,0,Wunderground v.1.15,2013-02-21 05:35:00,
2013-02-20 21:40:00,32.1,28.1,29.82,West,269,0.0,0.0,85,0.00,,,0.00,0,Wunderground v.1.15,2013-02-21 05:40:00,
2013-02-20 21:55:00,31.4,27.7,29.82,West,269,0.0,0.0,86,0.00,,,0.00,0,Wunderground v.1.15,2013-02-21 05:55:00,
2013-02-20 22:00:00,31.4,28.0,29.82,West,269,0.0,0.0,87,0.00,,,0.00,0,Wunderground v.1.15,2013-02-21 06:00:00,
2013-02-20 22:10:00,30.7,27.0,29.83,West,269,1.0,1.0,86,0.00,,,0.00,0,Wunderground v.1.15,2013-02-21 06:10:00,
2013-02-20 22:20:00,30.1,27.0,29.83,West,268,1.0,1.0,88,0.00,,,0.00,0,Wunderground v.1.15,2013-02-21 06:20:00,
2013-02-20 22:30:00,30.0,26.3,29.83,West,268,0.0,0.0,86,0.00,,,0.00,0,Wunderground v.1.15,2013-02-21 06:30:00,
2013-02-20 22:45:00,29.6,25.6,29.83,West,268,0.0,0.0,85,0.00,,,0.00,0,Wunderground v.1.15,2013-02-21 06:45:00,
2013-02-20 22:50:00,29.5,25.5,29.83,West,268,0.0,0.0,85,0.00,,,0.00,0,Wunderground v.1.15,2013-02-21 06:50:00,
2013-02-20 23:00:00,28.8,25.1,29.82,West,268,0.0,0.0,86,0.00,,,0.00,0,Wunderground v.1.15,2013-02-21 07:00:00,
2013-02-20 23:10:00,28.3,24.6,29.82,West,268,0.0,0.0,86,0.00,,,0.00,0,Wunderground v.1.15,2013-02-21 07:10:00,
2013-02-20 23:20:00,27.2,24.1,29.82,West,268,0.0,0.0,88,0.00,,,0.00,0,Wunderground v.1.15,2013-02-21 07:20:00,
2013-02-20 23:30:00,26.5,24.0,29.82,West,270,2.0,2.0,90,0.00,,,0.00,0,Wunderground v.1.15,2013-02-21 07:30:00,
2013-02-20 23:40:00,25.9,23.9,29.83,NNW,347,0.0,1.0,92,0.00,,,0.00,0,Wunderground v.1.15,2013-02-21 07:40:00,
2013-02-20 23:50:00,26.1,24.6,29.83,West,273,2.0,2.0,94,0.00,,,0.00,0,Wunderground v.1.15,2013-02-21 07:50:00,